Ida — C4CZ2 — position and weather

sailwx.info

Track history (hours):
 
Tides and Currents Weather Stations Pressure Air Temp Water Temp Dewpoint Dewpoint Depression Visibility Wind Speed Wind Dir Waves Ship Positions

Ida

Last reported at 2015-Mar-31 23:34 UTC. Time now 2015-Mar-31 23:51 UTC.
Position N 52°25' E 004°51'.

Length 82 m; draft 3 m.

Type: Cargo ship. MMSI: 210319000.

Date/timePositionNaut miles runAvg speedWind from/ knotsBaromVisibWave heightAir tempDewpointWater temp
2015-Mar-31 23:34N 52°25' E 004°51'9 9.3
2015-Mar-31 22:33N 52°28' E 004°37'2 2.1
2015-Mar-31 21:33N 52°28' E 004°33'8 7.8
2015-Mar-31 20:33N 52°28' E 004°20'7 6.5
2015-Mar-31 19:34N 52°27' E 004°10'8 7.9
2015-Mar-31 18:33N 52°25' E 003°57'72 8.6
2015-Mar-31 10:06N 51°48' E 002°16'5 9.3
2015-Mar-31 09:33N 51°45' E 002°10'9 9.2
2015-Mar-31 08:33N 51°39' E 001°58'9 9.4
2015-Mar-31 07:33N 51°35' E 001°45'9 8.8
2015-Mar-31 06:34N 51°30' E 001°33'9 8.6
2015-Mar-31 05:33N 51°29' E 001°19'10 9.3
2015-Mar-31 04:32N 51°29' E 001°04'9 9.2
2015-Mar-31 03:33N 51°29' E 000°49'1211.6
2015-Mar-31 02:33N 51°30' E 000°31'9 9.0
2015-Mar-31 01:33N 51°27' E 000°17'5 4.4
2015-Mar-31 00:31N 51°30' E 000°10'0 0.0
2015-Mar-30 23:31N 51°30' E 000°10'0 0.0
2015-Mar-30 22:31N 51°30' E 000°10'0 0.0
2015-Mar-30 21:31N 51°30' E 000°10'0 0.0
2015-Mar-30 20:31N 51°30' E 000°10'0 0.0
2015-Mar-30 19:31N 51°30' E 000°10'0 0.0
2015-Mar-30 18:31N 51°30' E 000°10'0 0.0
2015-Mar-30 17:31N 51°30' E 000°10'0 0.0
2015-Mar-30 16:31N 51°30' E 000°10'0 0.0
2015-Mar-30 15:31N 51°30' E 000°10'0 0.0
2015-Mar-30 14:31N 51°30' E 000°10'0 0.0
2015-Mar-30 13:31N 51°30' E 000°10'0 0.0
2015-Mar-30 12:31N 51°30' E 000°10'3 2.8
2015-Mar-30 11:33N 51°28' E 000°14'6 5.6
2015-Mar-30 10:33N 51°27' E 000°23'7 7.3
2015-Mar-30 09:33N 51°30' E 000°33'9 8.7
2015-Mar-30 08:30N 51°29' E 000°48'6 6.1
2015-Mar-30 07:33N 51°30' E 000°57'2 1.8
2015-Mar-30 06:14N 51°31' E 001°01'0 0.0
2015-Mar-30 05:26N 51°31' E 001°01'0 0.0
2015-Mar-30 04:26N 51°31' E 001°01'0 0.1
2015-Mar-30 03:26N 51°31' E 001°01'0 0.0
2015-Mar-30 02:29N 51°31' E 001°01'0 0.0
2015-Mar-30 01:29N 51°31' E 001°01'0 0.0
2015-Mar-30 00:29N 51°31' E 001°01'0 0.0
2015-Mar-29 23:32N 51°31' E 001°01'0 0.0
2015-Mar-29 22:29N 51°31' E 001°01'0 0.0
2015-Mar-29 21:32N 51°31' E 001°01'0 0.0
2015-Mar-29 20:32N 51°31' E 001°01'0 0.1
2015-Mar-29 19:32N 51°31' E 001°01'0 0.0
2015-Mar-29 18:17N 51°31' E 001°01'0 0.0
2015-Mar-29 17:32N 51°31' E 001°01'0 0.1
2015-Mar-29 16:23N 51°31' E 001°01'0 0.0
2015-Mar-29 15:23N 51°31' E 001°01'0 0.0
2015-Mar-29 14:26N 51°31' E 001°01'0 0.0
2015-Mar-29 13:26N 51°31' E 001°01'0 0.0
2015-Mar-29 12:23N 51°31' E 001°01'0 0.0
2015-Mar-29 11:29N 51°31' E 001°01'0 0.0
2015-Mar-29 10:29N 51°31' E 001°01'0 0.2
2015-Mar-29 09:32N 51°31' E 001°01'8 7.9
2015-Mar-29 08:32N 51°36' E 001°12'8 8.3
2015-Mar-29 07:33N 51°42' E 001°21'9 8.5
2015-Mar-29 06:33N 51°48' E 001°31'9 8.8
2015-Mar-29 05:33N 51°53' E 001°42'9 9.2
2015-Mar-29 04:33N 52°02' E 001°46'1010.2
2015-Mar-29 03:33N 52°12' E 001°49'1010.4
2015-Mar-29 02:33N 52°22' E 001°51'1010.0
2015-Mar-29 01:33N 52°32' E 001°54'10 9.4
2015-Mar-29 00:33N 52°41' E 001°56'9 8.3
2015-Mar-28 23:26N 52°48' E 001°46'8 8.5
2015-Mar-28 22:33N 52°53' E 001°37'8 8.1
2015-Mar-28 21:33N 52°60' E 001°29'8 7.7
2015-Mar-28 20:33N 53°06' E 001°22'55 7.8
2015-Mar-28 13:28N 53°54' E 000°34'8 8.4
2015-Mar-28 12:32N 54°01' E 000°27'8 8.4
2015-Mar-28 11:33N 54°07' E 000°20'8 8.4
2015-Mar-28 10:33N 54°15' E 000°12'8 8.3
2015-Mar-28 09:33N 54°22' E 000°04'8 8.4
2015-Mar-28 08:33N 54°29' W 000°03'8 8.1
2015-Mar-28 07:33N 54°35' W 000°11'8 8.0
2015-Mar-28 06:33N 54°42' W 000°19'8 8.1
2015-Mar-28 05:33N 54°49' W 000°26'8 8.2
2015-Mar-28 04:33N 54°56' W 000°34'9 8.9
2015-Mar-28 03:33N 55°03' W 000°42'8 7.9
2015-Mar-28 02:33N 55°10' W 000°50'  
Track history (hours):
 
Tides and Currents Weather Stations Pressure Air Temp Water Temp Dewpoint Dewpoint Depression Visibility Wind Speed Wind Dir Waves Ship Positions

Ida

Last reported at 2015-Mar-31 23:34 UTC. Time now 2015-Mar-31 23:51 UTC.
Position N 52°25' E 004°51'.

Length 82 m; draft 3 m.

Type: Cargo ship. MMSI: 210319000.

Date/timePositionNaut miles runAvg speedWind from/ knotsBaromVisibWave heightAir tempDewpointWater temp
2015-Mar-31 23:34N 52°25' E 004°51'9 9.3
2015-Mar-31 22:33N 52°28' E 004°37'2 2.1
2015-Mar-31 21:33N 52°28' E 004°33'8 7.8
2015-Mar-31 20:33N 52°28' E 004°20'7 6.5
2015-Mar-31 19:34N 52°27' E 004°10'8 7.9
2015-Mar-31 18:33N 52°25' E 003°57'72 8.6
2015-Mar-31 10:06N 51°48' E 002°16'5 9.3
2015-Mar-31 09:33N 51°45' E 002°10'9 9.2
2015-Mar-31 08:33N 51°39' E 001°58'9 9.4
2015-Mar-31 07:33N 51°35' E 001°45'9 8.8
2015-Mar-31 06:34N 51°30' E 001°33'9 8.6
2015-Mar-31 05:33N 51°29' E 001°19'10 9.3
2015-Mar-31 04:32N 51°29' E 001°04'9 9.2
2015-Mar-31 03:33N 51°29' E 000°49'1211.6
2015-Mar-31 02:33N 51°30' E 000°31'9 9.0
2015-Mar-31 01:33N 51°27' E 000°17'5 4.4
2015-Mar-31 00:31N 51°30' E 000°10'0 0.0
2015-Mar-30 23:31N 51°30' E 000°10'0 0.0
2015-Mar-30 22:31N 51°30' E 000°10'0 0.0
2015-Mar-30 21:31N 51°30' E 000°10'0 0.0
2015-Mar-30 20:31N 51°30' E 000°10'0 0.0
2015-Mar-30 19:31N 51°30' E 000°10'0 0.0
2015-Mar-30 18:31N 51°30' E 000°10'0 0.0
2015-Mar-30 17:31N 51°30' E 000°10'0 0.0
2015-Mar-30 16:31N 51°30' E 000°10'0 0.0
2015-Mar-30 15:31N 51°30' E 000°10'0 0.0
2015-Mar-30 14:31N 51°30' E 000°10'0 0.0
2015-Mar-30 13:31N 51°30' E 000°10'0 0.0
2015-Mar-30 12:31N 51°30' E 000°10'3 2.8
2015-Mar-30 11:33N 51°28' E 000°14'6 5.6
2015-Mar-30 10:33N 51°27' E 000°23'7 7.3
2015-Mar-30 09:33N 51°30' E 000°33'9 8.7
2015-Mar-30 08:30N 51°29' E 000°48'6 6.1
2015-Mar-30 07:33N 51°30' E 000°57'2 1.8
2015-Mar-30 06:14N 51°31' E 001°01'0 0.0
2015-Mar-30 05:26N 51°31' E 001°01'0 0.0
2015-Mar-30 04:26N 51°31' E 001°01'0 0.1
2015-Mar-30 03:26N 51°31' E 001°01'0 0.0
2015-Mar-30 02:29N 51°31' E 001°01'0 0.0
2015-Mar-30 01:29N 51°31' E 001°01'0 0.0
2015-Mar-30 00:29N 51°31' E 001°01'0 0.0
2015-Mar-29 23:32N 51°31' E 001°01'0 0.0
2015-Mar-29 22:29N 51°31' E 001°01'0 0.0
2015-Mar-29 21:32N 51°31' E 001°01'0 0.0
2015-Mar-29 20:32N 51°31' E 001°01'0 0.1
2015-Mar-29 19:32N 51°31' E 001°01'0 0.0
2015-Mar-29 18:17N 51°31' E 001°01'0 0.0
2015-Mar-29 17:32N 51°31' E 001°01'0 0.1
2015-Mar-29 16:23N 51°31' E 001°01'0 0.0
2015-Mar-29 15:23N 51°31' E 001°01'0 0.0
2015-Mar-29 14:26N 51°31' E 001°01'0 0.0
2015-Mar-29 13:26N 51°31' E 001°01'0 0.0
2015-Mar-29 12:23N 51°31' E 001°01'0 0.0
2015-Mar-29 11:29N 51°31' E 001°01'0 0.0
2015-Mar-29 10:29N 51°31' E 001°01'0 0.2
2015-Mar-29 09:32N 51°31' E 001°01'8 7.9
2015-Mar-29 08:32N 51°36' E 001°12'8 8.3
2015-Mar-29 07:33N 51°42' E 001°21'9 8.5
2015-Mar-29 06:33N 51°48' E 001°31'9 8.8
2015-Mar-29 05:33N 51°53' E 001°42'9 9.2
2015-Mar-29 04:33N 52°02' E 001°46'1010.2
2015-Mar-29 03:33N 52°12' E 001°49'1010.4
2015-Mar-29 02:33N 52°22' E 001°51'1010.0
2015-Mar-29 01:33N 52°32' E 001°54'10 9.4
2015-Mar-29 00:33N 52°41' E 001°56'9 8.3
2015-Mar-28 23:26N 52°48' E 001°46'8 8.5
2015-Mar-28 22:33N 52°53' E 001°37'8 8.1
2015-Mar-28 21:33N 52°60' E 001°29'8 7.7
2015-Mar-28 20:33N 53°06' E 001°22'55 7.8
2015-Mar-28 13:28N 53°54' E 000°34'8 8.4
2015-Mar-28 12:32N 54°01' E 000°27'8 8.4
2015-Mar-28 11:33N 54°07' E 000°20'8 8.4
2015-Mar-28 10:33N 54°15' E 000°12'8 8.3
2015-Mar-28 09:33N 54°22' E 000°04'8 8.4
2015-Mar-28 08:33N 54°29' W 000°03'8 8.1
2015-Mar-28 07:33N 54°35' W 000°11'8 8.0
2015-Mar-28 06:33N 54°42' W 000°19'8 8.1
2015-Mar-28 05:33N 54°49' W 000°26'8 8.2
2015-Mar-28 04:33N 54°56' W 000°34'9 8.9
2015-Mar-28 03:33N 55°03' W 000°42'8 7.9
2015-Mar-28 02:33N 55°10' W 000°50'  

Dump ship's entire track history